Time;durP1;ratioP1;P1;durP2;ratioP2;P2;SDS_P1;SDS_P2;PMS_P1;PMS_P2;Temp;Humidity;BMP_temperature;BMP_pressure;BME280_temperature;BME280_humidity;BME280_pressure;Samples;Min_cycle;Max_cycle;Signal;HPM_P1;HPM_P2
2022/05/13 00:00:04;;;;;;;79.30;44.22;;;;;;;;;;5053139;28;20048;-70
2022/05/13 00:03:12;;;;;;;62.72;36.10;;;;;;;;;;5053011;28;20084;-70
2022/05/13 00:06:16;;;;;;;47.47;33.65;;;;;;;;;;5051975;28;20116;-69
2022/05/13 00:09:21;;;;;;;52.15;31.63;;;;;;;;;;5052660;28;20059;-70
2022/05/13 00:12:27;;;;;;;54.42;34.60;;;;;;;;;;5052864;28;20060;-70
2022/05/13 00:15:31;;;;;;;52.92;34.50;;;;;;;;;;5052794;28;20068;-70
2022/05/13 00:18:35;;;;;;;56.50;34.72;;;;;;;;;;5052825;28;20400;-70
2022/05/13 00:21:39;;;;;;;130.68;74.32;;;;;;;;;;5052748;28;20044;-71
2022/05/13 00:24:44;;;;;;;183.77;103.88;;;;;;;;;;5052864;28;20052;-70
2022/05/13 00:27:49;;;;;;;129.45;74.70;;;;;;;;;;5052844;28;20063;-70
2022/05/13 00:30:53;;;;;;;109.55;65.45;;;;;;;;;;5053010;28;20044;-69
2022/05/13 00:33:57;;;;;;;137.18;75.53;;;;;;;;;;5053670;28;20047;-70
2022/05/13 00:37:01;;;;;;;145.82;76.88;;;;;;;;;;5052557;28;20056;-70
2022/05/13 00:40:06;;;;;;;166.77;90.45;;;;;;;;;;5052962;28;20051;-70
2022/05/13 00:43:11;;;;;;;204.70;114.50;;;;;;;;;;5052345;28;20047;-70
2022/05/13 00:46:16;;;;;;;140.63;83.30;;;;;;;;;;5051387;28;20060;-70
2022/05/13 00:49:21;;;;;;;114.88;67.55;;;;;;;;;;5052409;28;20056;-70
2022/05/13 00:52:27;;;;;;;91.18;54.45;;;;;;;;;;5052255;28;20112;-70
2022/05/13 00:55:36;;;;;;;82.63;45.67;;;;;;;;;;5051415;28;20127;-70
2022/05/13 00:58:42;;;;;;;43.47;30.60;;;;;;;;;;5051566;28;20392;-69
2022/05/13 01:01:48;;;;;;;51.58;33.92;;;;;;;;;;5051354;28;20056;-70
2022/05/13 01:04:53;;;;;;;54.13;34.30;;;;;;;;;;5052294;28;20495;-70
2022/05/13 01:08:00;;;;;;;48.45;32.10;;;;;;;;;;5039126;28;20064;-71
2022/05/13 01:11:06;;;;;;;55.75;34.90;;;;;;;;;;5051677;28;20052;-70
2022/05/13 01:14:22;;;;;;;53.92;34.22;;;;;;;;;;5050934;28;20060;-71
2022/05/13 01:20:51;;;;;;;52.28;34.30;;;;;;;;;;5051504;28;20400;-70
2022/05/13 01:23:55;;;;;;;50.60;32.08;;;;;;;;;;5051473;28;20487;-70
2022/05/13 01:27:00;;;;;;;36.63;29.27;;;;;;;;;;5051245;28;20051;-69
2022/05/13 01:30:04;;;;;;;46.22;31.33;;;;;;;;;;5051464;28;20417;-70
2022/05/13 01:33:10;;;;;;;40.42;29.50;;;;;;;;;;5051599;28;20508;-70
2022/05/13 01:36:15;;;;;;;45.95;30.52;;;;;;;;;;5051352;28;20123;-70
2022/05/13 01:39:20;;;;;;;46.63;31.00;;;;;;;;;;5050614;28;20412;-68
2022/05/13 01:42:24;;;;;;;44.30;30.60;;;;;;;;;;5051197;28;20511;-70
2022/05/13 01:45:28;;;;;;;47.92;31.55;;;;;;;;;;5051400;28;20048;-70
2022/05/13 01:48:32;;;;;;;46.72;31.50;;;;;;;;;;5051065;28;20048;-70
2022/05/13 01:51:37;;;;;;;50.58;34.30;;;;;;;;;;5051057;28;20040;-70
2022/05/13 01:54:41;;;;;;;55.88;34.90;;;;;;;;;;5051133;28;20067;-70
2022/05/13 01:57:45;;;;;;;49.88;32.17;;;;;;;;;;5051462;28;20048;-70
2022/05/13 02:00:51;;;;;;;44.38;31.80;;;;;;;;;;5027197;28;20056;-70
2022/05/13 02:03:57;;;;;;;49.78;33.83;;;;;;;;;;5051130;28;20130;-70
2022/05/13 02:07:02;;;;;;;50.20;31.65;;;;;;;;;;5050491;28;20495;-70
2022/05/13 02:10:06;;;;;;;43.30;29.95;;;;;;;;;;5050247;28;20055;-70
2022/05/13 02:13:11;;;;;;;43.15;30.38;;;;;;;;;;5050758;28;20055;-70
2022/05/13 02:16:15;;;;;;;47.33;31.08;;;;;;;;;;5050784;28;20055;-70
2022/05/13 02:19:20;;;;;;;48.95;31.63;;;;;;;;;;5050905;28;20048;-70
2022/05/13 02:22:24;;;;;;;54.30;36.00;;;;;;;;;;5050725;28;20040;-70
2022/05/13 02:25:30;;;;;;;55.20;31.77;;;;;;;;;;5050595;28;20196;-70
2022/05/13 02:28:34;;;;;;;46.10;32.38;;;;;;;;;;5050989;28;20052;-70
2022/05/13 02:31:38;;;;;;;49.80;32.03;;;;;;;;;;5050582;28;20048;-70
2022/05/13 02:34:43;;;;;;;47.88;31.63;;;;;;;;;;5050016;28;20067;-70
2022/05/13 02:37:49;;;;;;;50.78;33.90;;;;;;;;;;5050829;28;20389;-70
2022/05/13 02:41:11;;;;;;;55.90;34.20;;;;;;;;;;5050853;28;20056;-70
2022/05/13 02:44:15;;;;;;;73.70;49.95;;;;;;;;;;5050686;28;20040;-70
2022/05/13 02:47:20;;;;;;;75.97;44.88;;;;;;;;;;5050340;28;20052;-70
2022/05/13 02:50:25;;;;;;;70.00;44.97;;;;;;;;;;5050409;28;20040;-70
2022/05/13 02:53:30;;;;;;;77.72;46.28;;;;;;;;;;5050400;28;20393;-70
2022/05/13 02:56:35;;;;;;;175.82;96.50;;;;;;;;;;5049552;28;20052;-70
2022/05/13 02:59:39;;;;;;;149.45;87.60;;;;;;;;;;5050201;28;20044;-70
2022/05/13 03:02:43;;;;;;;124.85;73.32;;;;;;;;;;5049937;28;20039;-70
2022/05/13 03:05:48;;;;;;;103.85;63.50;;;;;;;;;;5050382;28;20068;-70
2022/05/13 03:08:52;;;;;;;71.18;46.47;;;;;;;;;;5050199;28;20048;-70
2022/05/13 03:11:57;;;;;;;63.33;40.80;;;;;;;;;;5050556;28;20048;-69
2022/05/13 03:15:01;;;;;;;60.30;39.72;;;;;;;;;;5050372;28;20112;-70
2022/05/13 03:18:05;;;;;;;63.97;40.90;;;;;;;;;;5049618;28;20397;-69
2022/05/13 03:21:10;;;;;;;55.58;37.03;;;;;;;;;;5053752;28;20508;-70
2022/05/13 03:24:14;;;;;;;57.72;36.55;;;;;;;;;;5053625;28;20040;-70
2022/05/13 03:27:18;;;;;;;62.50;40.05;;;;;;;;;;5053299;28;20057;-69
2022/05/13 03:30:24;;;;;;;63.88;38.25;;;;;;;;;;5053505;28;20385;-70
2022/05/13 03:33:28;;;;;;;57.33;37.97;;;;;;;;;;5053544;28;20048;-70
2022/05/13 03:36:33;;;;;;;53.88;37.63;;;;;;;;;;5053550;28;20044;-70
2022/05/13 03:39:37;;;;;;;61.90;38.75;;;;;;;;;;5052554;28;20063;-70
2022/05/13 03:42:41;;;;;;;58.63;37.30;;;;;;;;;;5053301;28;20044;-70
2022/05/13 03:45:46;;;;;;;59.33;37.13;;;;;;;;;;5053354;28;20052;-69
2022/05/13 03:48:50;;;;;;;54.88;36.55;;;;;;;;;;5052648;28;20059;-70
2022/05/13 03:51:55;;;;;;;57.97;37.30;;;;;;;;;;5052931;28;20052;-70
2022/05/13 03:54:59;;;;;;;61.30;40.35;;;;;;;;;;5053082;28;20052;-70
2022/05/13 03:58:04;;;;;;;63.25;41.92;;;;;;;;;;5052829;28;20104;-70
2022/05/13 04:01:09;;;;;;;67.15;42.22;;;;;;;;;;5052925;28;20048;-69
2022/05/13 04:04:14;;;;;;;79.50;48.05;;;;;;;;;;5052841;28;20043;-70
2022/05/13 04:10:42;;;;;;;87.18;50.33;;;;;;;;;;5052918;28;20504;-70
2022/05/13 04:17:11;;;;;;;71.75;46.20;;;;;;;;;;5052399;28;20048;-70
2022/05/13 04:20:21;;;;;;;82.32;47.65;;;;;;;;;;5052420;28;20048;-69
2022/05/13 04:23:25;;;;;;;94.68;53.53;;;;;;;;;;5052266;28;20051;-69
2022/05/13 04:26:29;;;;;;;96.35;54.85;;;;;;;;;;5052529;28;20055;-69
2022/05/13 04:29:36;;;;;;;96.00;53.33;;;;;;;;;;5052354;28;20048;-70
2022/05/13 04:32:40;;;;;;;104.75;55.15;;;;;;;;;;5052198;28;20396;-69
2022/05/13 04:35:45;;;;;;;94.57;50.55;;;;;;;;;;5052330;28;20104;-70
2022/05/13 04:38:49;;;;;;;92.22;51.53;;;;;;;;;;5052415;28;20044;-70
2022/05/13 04:45:17;;;;;;;67.55;40.58;;;;;;;;;;5050363;28;20130;-70
2022/05/13 04:48:26;;;;;;;88.15;45.22;;;;;;;;;;5049488;28;20055;-70
2022/05/13 04:51:30;;;;;;;102.03;54.13;;;;;;;;;;5050072;28;20396;-70
2022/05/13 04:54:35;;;;;;;81.32;40.20;;;;;;;;;;5050219;28;20306;-70
2022/05/13 04:57:39;;;;;;;84.32;42.75;;;;;;;;;;5051641;28;20044;-70
2022/05/13 05:00:44;;;;;;;76.50;43.63;;;;;;;;;;5052006;28;20112;-70
2022/05/13 05:03:49;;;;;;;90.60;51.85;;;;;;;;;;5051874;28;20064;-65
2022/05/13 05:06:53;;;;;;;90.45;48.17;;;;;;;;;;5051649;28;20060;-65
2022/05/13 05:09:57;;;;;;;105.45;52.22;;;;;;;;;;5051413;28;20643;-63
2022/05/13 05:13:02;;;;;;;102.38;59.78;;;;;;;;;;5051426;28;20048;-66
2022/05/13 05:16:07;;;;;;;123.93;66.93;;;;;;;;;;5051779;28;20052;-65
2022/05/13 05:19:12;;;;;;;114.28;60.25;;;;;;;;;;5051690;28;20416;-65
2022/05/13 05:22:16;;;;;;;102.82;58.08;;;;;;;;;;5050507;28;20048;-65
2022/05/13 05:25:21;;;;;;;94.70;52.42;;;;;;;;;;5051131;28;20040;-64
2022/05/13 05:28:26;;;;;;;81.20;46.40;;;;;;;;;;5051251;28;20385;-65
2022/05/13 05:31:31;;;;;;;70.47;42.63;;;;;;;;;;5051283;28;20036;-65
2022/05/13 05:34:35;;;;;;;69.45;41.65;;;;;;;;;;5051292;28;20389;-65
2022/05/13 05:37:40;;;;;;;59.47;39.05;;;;;;;;;;5051394;28;20048;-65
2022/05/13 05:40:44;;;;;;;62.58;37.58;;;;;;;;;;5051290;28;20504;-66
2022/05/13 05:43:50;;;;;;;66.43;37.88;;;;;;;;;;5050221;28;20369;-64
2022/05/13 05:46:55;;;;;;;60.78;36.95;;;;;;;;;;5050656;28;20056;-64
2022/05/13 05:49:59;;;;;;;76.47;38.92;;;;;;;;;;5050072;28;20051;-66
2022/05/13 05:53:04;;;;;;;57.10;35.03;;;;;;;;;;5050395;28;20067;-65
2022/05/13 05:59:32;;;;;;;50.80;33.65;;;;;;;;;;5051055;28;20048;-65
2022/05/13 06:02:36;;;;;;;44.08;32.30;;;;;;;;;;5050689;28;20052;-65
2022/05/13 06:05:41;;;;;;;51.58;30.52;;;;;;;;;;5050907;28;20044;-64
2022/05/13 06:08:45;;;;;;;42.58;26.90;;;;;;;;;;5050526;28;20524;-64
2022/05/13 06:11:50;;;;;;;39.42;23.92;;;;;;;;;;5050829;28;20048;-64
2022/05/13 06:14:54;;;;;;;39.08;25.65;;;;;;;;;;5050906;28;20511;-66
2022/05/13 06:17:58;;;;;;;45.83;25.75;;;;;;;;;;5050459;28;20048;-64
2022/05/13 06:21:02;;;;;;;42.33;26.27;;;;;;;;;;5050327;28;20047;-65
2022/05/13 06:24:07;;;;;;;837.17;91.32;;;;;;;;;;5050640;28;20044;-70
2022/05/13 06:27:11;;;;;;;41.40;24.98;;;;;;;;;;5048855;28;20064;-70
2022/05/13 06:30:18;;;;;;;37.10;24.13;;;;;;;;;;5048594;28;20072;-74
2022/05/13 06:33:23;;;;;;;58.17;22.20;;;;;;;;;;5048344;28;20116;-72
2022/05/13 06:36:27;;;;;;;43.25;18.90;;;;;;;;;;5048793;28;20512;-71
2022/05/13 06:39:31;;;;;;;26.33;16.77;;;;;;;;;;5048846;28;20067;-73
2022/05/13 06:42:36;;;;;;;31.10;16.45;;;;;;;;;;5049504;28;20496;-71
2022/05/13 06:45:41;;;;;;;23.38;15.30;;;;;;;;;;5050468;28;20036;-71
2022/05/13 06:48:45;;;;;;;20.42;13.23;;;;;;;;;;5050186;28;20417;-71
2022/05/13 06:51:49;;;;;;;24.27;12.43;;;;;;;;;;5050187;28;20056;-71
2022/05/13 06:54:53;;;;;;;22.25;13.18;;;;;;;;;;5053465;28;20052;-71
2022/05/13 06:57:58;;;;;;;22.90;12.68;;;;;;;;;;5053923;28;20056;-72
2022/05/13 07:01:03;;;;;;;45.38;26.83;;;;;;;;;;5053364;28;20539;-71
2022/05/13 07:04:06;;;;;;;26.95;17.75;;;;;;;;;;5054088;28;20088;-71
2022/05/13 07:07:11;;;;;;;28.65;15.43;;;;;;;;;;5053699;28;20523;-71
2022/05/13 07:10:16;;;;;;;26.70;15.63;;;;;;;;;;5053476;28;20064;-71
2022/05/13 07:13:21;;;;;;;22.98;14.48;;;;;;;;;;5053070;28;20047;-71
2022/05/13 07:16:25;;;;;;;24.80;14.85;;;;;;;;;;5053906;28;20044;-71
2022/05/13 07:19:30;;;;;;;26.05;16.20;;;;;;;;;;5053813;28;20052;-71
2022/05/13 07:22:34;;;;;;;24.88;14.50;;;;;;;;;;5053895;28;20044;-72
2022/05/13 07:25:38;;;;;;;25.33;14.02;;;;;;;;;;5053673;28;20047;-72
2022/05/13 07:28:43;;;;;;;27.75;15.88;;;;;;;;;;5053711;28;20052;-71
2022/05/13 07:31:47;;;;;;;21.55;13.55;;;;;;;;;;5053327;28;20044;-71
2022/05/13 07:34:52;;;;;;;23.48;13.25;;;;;;;;;;5053242;28;20056;-71
2022/05/13 07:37:56;;;;;;;21.83;11.57;;;;;;;;;;5053568;28;20044;-70
2022/05/13 07:41:16;;;;;;;21.90;12.68;;;;;;;;;;5053464;28;20055;-70
2022/05/13 07:44:20;;;;;;;24.05;13.45;;;;;;;;;;5053291;28;20511;-71
2022/05/13 07:47:24;;;;;;;21.13;13.27;;;;;;;;;;5053228;28;20412;-71
2022/05/13 07:50:29;;;;;;;89.35;17.98;;;;;;;;;;5053336;28;20040;-71
2022/05/13 07:53:34;;;;;;;21.80;9.93;;;;;;;;;;5053187;28;20052;-72
2022/05/13 07:56:38;;;;;;;22.05;11.05;;;;;;;;;;5053333;28;20512;-71
2022/05/13 08:03:11;;;;;;;25.48;10.65;;;;;;;;;;5053113;28;20040;-67
2022/05/13 08:06:15;;;;;;;28.07;10.60;;;;;;;;;;5052371;28;20055;-67
2022/05/13 08:09:20;;;;;;;26.17;11.10;;;;;;;;;;5052505;28;20052;-68
2022/05/13 08:12:24;;;;;;;27.15;12.90;;;;;;;;;;5052530;28;20040;-68
2022/05/13 08:15:28;;;;;;;27.58;14.80;;;;;;;;;;5052580;28;20047;-67
2022/05/13 08:18:33;;;;;;;23.40;13.85;;;;;;;;;;5052641;28;20044;-68
2022/05/13 08:21:37;;;;;;;29.58;13.45;;;;;;;;;;5052631;28;20523;-68
2022/05/13 08:24:42;;;;;;;27.13;14.35;;;;;;;;;;5052715;28;20314;-69
2022/05/13 08:27:47;;;;;;;30.38;14.32;;;;;;;;;;5052230;28;20052;-66
2022/05/13 08:30:51;;;;;;;28.83;15.70;;;;;;;;;;5052446;28;20071;-67
2022/05/13 08:33:56;;;;;;;32.42;15.98;;;;;;;;;;5052476;28;20059;-68
2022/05/13 08:37:01;;;;;;;24.00;14.95;;;;;;;;;;5052491;28;20398;-67
2022/05/13 08:40:06;;;;;;;21.80;14.77;;;;;;;;;;5052229;28;20071;-67
2022/05/13 08:43:13;;;;;;;22.13;12.93;;;;;;;;;;5052097;28;20048;-68
2022/05/13 08:46:17;;;;;;;20.90;14.98;;;;;;;;;;5051866;28;20044;-68
2022/05/13 08:49:36;;;;;;;20.95;13.32;;;;;;;;;;5052182;28;20056;-67
2022/05/13 08:56:10;;;;;;;25.45;16.65;;;;;;;;;;5051740;28;20048;-67
2022/05/13 08:59:18;;;;;;;24.23;15.48;;;;;;;;;;5051651;28;20532;-67
2022/05/13 09:02:24;;;;;;;18.73;13.07;;;;;;;;;;5052364;28;20044;-68
2022/05/13 09:05:30;;;;;;;28.83;15.48;;;;;;;;;;5050928;28;20048;-66
2022/05/13 09:08:35;;;;;;;25.20;13.60;;;;;;;;;;5051229;28;20060;-67
2022/05/13 09:11:58;;;;;;;26.40;16.10;;;;;;;;;;5055686;28;20052;-67
2022/05/13 09:15:08;;;;;;;26.58;16.08;;;;;;;;;;5051433;28;20396;-66
2022/05/13 09:18:22;;;;;;;22.25;13.00;;;;;;;;;;5051214;28;20066;-68
2022/05/13 09:21:26;;;;;;;21.25;14.18;;;;;;;;;;5051586;28;20044;-68
2022/05/13 09:24:31;;;;;;;25.85;15.93;;;;;;;;;;5051329;28;20511;-67
2022/05/13 09:27:45;;;;;;;21.15;12.13;;;;;;;;;;5050963;28;20068;-67
2022/05/13 09:30:53;;;;;;;26.92;14.40;;;;;;;;;;5051349;28;20047;-67
2022/05/13 09:33:57;;;;;;;33.10;16.85;;;;;;;;;;5051491;28;20043;-68
2022/05/13 09:37:07;;;;;;;33.78;15.70;;;;;;;;;;5051427;28;20060;-67
2022/05/13 09:40:12;;;;;;;20.70;13.10;;;;;;;;;;5051341;28;20492;-67
2022/05/13 09:43:31;;;;;;;18.00;10.75;;;;;;;;;;5051153;28;20043;-68
2022/05/13 09:46:37;;;;;;;20.30;13.65;;;;;;;;;;5051085;28;20051;-68
2022/05/13 09:49:43;;;;;;;25.85;16.42;;;;;;;;;;5050934;28;20052;-67
2022/05/13 09:52:47;;;;;;;28.52;13.98;;;;;;;;;;5050888;28;20044;-68
2022/05/13 09:55:56;;;;;;;21.42;13.68;;;;;;;;;;5050843;28;20515;-68
2022/05/13 09:59:04;;;;;;;21.80;13.27;;;;;;;;;;5050693;28;20063;-67
2022/05/13 10:02:26;;;;;;;19.75;11.63;;;;;;;;;;5050800;28;20056;-68
2022/05/13 10:05:32;;;;;;;30.00;14.90;;;;;;;;;;5050902;28;20059;-66
2022/05/13 10:08:49;;;;;;;24.90;15.35;;;;;;;;;;5050419;28;20056;-67
2022/05/13 10:15:17;;;;;;;19.40;10.85;;;;;;;;;;5050381;28;20531;-67
2022/05/13 10:18:27;;;;;;;14.20;9.98;;;;;;;;;;5050692;28;20047;-68
2022/05/13 10:21:41;;;;;;;27.85;14.48;;;;;;;;;;5050390;28;20048;-67
2022/05/13 10:24:48;;;;;;;16.60;10.45;;;;;;;;;;5050365;28;20048;-68
2022/05/13 10:27:54;;;;;;;27.83;14.65;;;;;;;;;;5051743;28;20519;-67
2022/05/13 10:31:04;;;;;;;18.27;12.25;;;;;;;;;;5054395;28;20048;-68
2022/05/13 10:34:22;;;;;;;21.40;13.55;;;;;;;;;;5053675;28;20048;-67
2022/05/13 10:37:31;;;;;;;27.08;15.02;;;;;;;;;;5054613;28;20040;-66
2022/05/13 10:40:41;;;;;;;19.00;10.85;;;;;;;;;;5054641;28;20365;-67
2022/05/13 10:43:49;;;;;;;21.13;10.93;;;;;;;;;;5054274;28;20044;-67
2022/05/13 10:46:59;;;;;;;18.30;11.05;;;;;;;;;;5054174;28;20059;-67
2022/05/13 10:50:04;;;;;;;22.20;12.07;;;;;;;;;;5054294;28;20044;-67
2022/05/13 10:53:14;;;;;;;24.67;11.30;;;;;;;;;;5053857;28;20496;-69
2022/05/13 10:56:33;;;;;;;23.60;12.13;;;;;;;;;;5053792;28;20044;-71
2022/05/13 10:59:53;;;;;;;21.80;11.50;;;;;;;;;;5053899;28;20051;-68
2022/05/13 11:03:07;;;;;;;22.80;12.70;;;;;;;;;;5054298;28;20040;-67
2022/05/13 11:06:26;;;;;;;28.08;15.60;;;;;;;;;;5054070;28;20060;-69
2022/05/13 11:09:46;;;;;;;15.98;9.82;;;;;;;;;;5053490;28;20665;-68
2022/05/13 11:12:57;;;;;;;16.77;9.45;;;;;;;;;;5054052;28;20048;-67
2022/05/13 11:16:05;;;;;;;42.08;15.05;;;;;;;;;;5053918;28;20590;-67
2022/05/13 11:19:31;;;;;;;21.17;10.50;;;;;;;;;;5053775;28;20409;-68
2022/05/13 11:22:38;;;;;;;24.35;12.40;;;;;;;;;;5052894;28;20044;-68
2022/05/13 11:25:54;;;;;;;18.50;11.27;;;;;;;;;;5051325;28;20051;-67
2022/05/13 11:29:17;;;;;;;21.10;11.50;;;;;;;;;;5052717;28;20148;-67
2022/05/13 11:32:21;;;;;;;18.45;10.15;;;;;;;;;;5052520;28;20064;-67
2022/05/13 11:35:28;;;;;;;22.17;11.57;;;;;;;;;;5052907;28;20048;-67
2022/05/13 11:38:44;;;;;;;23.35;12.35;;;;;;;;;;5053176;28;20044;-68
2022/05/13 11:42:06;;;;;;;25.23;12.30;;;;;;;;;;5053379;28;20370;-68
2022/05/13 11:45:24;;;;;;;16.80;9.90;;;;;;;;;;5053241;28;20059;-68
2022/05/13 11:48:28;;;;;;;17.35;7.85;;;;;;;;;;5053325;28;20060;-67
2022/05/13 11:51:34;;;;;;;16.88;9.35;;;;;;;;;;5053249;28;20405;-67
2022/05/13 11:54:40;;;;;;;23.80;12.43;;;;;;;;;;5052990;28;20195;-67
2022/05/13 11:57:46;;;;;;;19.58;9.73;;;;;;;;;;5053041;28;20056;-68
2022/05/13 12:00:51;;;;;;;26.38;9.73;;;;;;;;;;5053058;28;20401;-67
2022/05/13 12:04:10;;;;;;;25.40;9.35;;;;;;;;;;5052191;28;20487;-68
2022/05/13 12:07:35;;;;;;;16.70;8.65;;;;;;;;;;5052797;28;20508;-67
2022/05/13 12:11:02;;;;;;;13.02;7.40;;;;;;;;;;5051967;28;20055;-67
2022/05/13 12:14:13;;;;;;;19.02;8.63;;;;;;;;;;5052896;28;20057;-68
2022/05/13 12:17:32;;;;;;;18.70;9.38;;;;;;;;;;5052531;28;20044;-67
2022/05/13 12:20:46;;;;;;;23.90;8.57;;;;;;;;;;5052670;28;20420;-68
2022/05/13 12:23:56;;;;;;;16.15;7.95;;;;;;;;;;5052672;28;20591;-68
2022/05/13 12:27:07;;;;;;;17.20;7.68;;;;;;;;;;5052589;28;20052;-68
2022/05/13 12:30:29;;;;;;;14.60;7.60;;;;;;;;;;5052588;28;20052;-67
2022/05/13 12:33:34;;;;;;;19.23;8.25;;;;;;;;;;5052267;28;20040;-68
2022/05/13 12:40:12;;;;;;;25.70;8.30;;;;;;;;;;5050942;28;20040;-67
2022/05/13 12:43:18;;;;;;;14.48;7.78;;;;;;;;;;5051500;28;20048;-69
2022/05/13 12:46:41;;;;;;;12.02;6.75;;;;;;;;;;5050629;28;20523;-69
2022/05/13 12:49:48;;;;;;;14.77;7.32;;;;;;;;;;5051838;28;20266;-69
2022/05/13 12:52:53;;;;;;;21.60;7.88;;;;;;;;;;5050143;28;20059;-72
2022/05/13 12:56:13;;;;;;;23.88;8.32;;;;;;;;;;5051469;28;20231;-69
2022/05/13 12:59:19;;;;;;;27.02;8.80;;;;;;;;;;5051253;28;20263;-68
2022/05/13 13:02:25;;;;;;;23.02;7.78;;;;;;;;;;5051240;28;20039;-69
2022/05/13 13:05:34;;;;;;;14.13;6.78;;;;;;;;;;5051091;28;20512;-70
2022/05/13 13:08:40;;;;;;;21.38;7.50;;;;;;;;;;5050850;28;20051;-71
2022/05/13 13:11:59;;;;;;;27.02;7.65;;;;;;;;;;5049937;28;20056;-69
2022/05/13 13:15:22;;;;;;;15.65;6.78;;;;;;;;;;5050987;28;20056;-68
2022/05/13 13:18:32;;;;;;;14.90;6.85;;;;;;;;;;5050880;28;20052;-68
2022/05/13 13:21:36;;;;;;;17.88;7.50;;;;;;;;;;5050752;28;20495;-67
2022/05/13 13:24:44;;;;;;;18.88;6.90;;;;;;;;;;5051803;28;20044;-70
2022/05/13 13:27:48;;;;;;;15.73;6.85;;;;;;;;;;5049757;28;20535;-67
2022/05/13 13:30:57;;;;;;;15.98;7.53;;;;;;;;;;5051330;28;20670;-68
2022/05/13 13:34:01;;;;;;;19.23;7.20;;;;;;;;;;5051366;28;20056;-68
2022/05/13 13:37:08;;;;;;;15.73;6.93;;;;;;;;;;5051134;28;20044;-68
2022/05/13 13:40:21;;;;;;;12.88;5.75;;;;;;;;;;5051359;28;20401;-68
2022/05/13 13:43:28;;;;;;;11.88;6.10;;;;;;;;;;5051084;28;20396;-68
2022/05/13 13:46:43;;;;;;;20.40;7.53;;;;;;;;;;5051443;28;20060;-68
2022/05/13 13:49:48;;;;;;;18.88;7.45;;;;;;;;;;5050905;28;20131;-67
2022/05/13 13:52:53;;;;;;;19.80;7.15;;;;;;;;;;5051270;28;20040;-68
2022/05/13 13:56:00;;;;;;;18.58;8.55;;;;;;;;;;5051068;28;20048;-68
2022/05/13 13:59:23;;;;;;;52.08;10.25;;;;;;;;;;5050726;28;20657;-67
2022/05/13 14:02:35;;;;;;;42.13;9.60;;;;;;;;;;5050094;28;20051;-68
2022/05/13 14:05:41;;;;;;;24.08;7.28;;;;;;;;;;5050688;28;20063;-67
2022/05/13 14:08:48;;;;;;;31.00;7.05;;;;;;;;;;5050406;28;20413;-68
2022/05/13 14:11:53;;;;;;;22.08;7.22;;;;;;;;;;5050459;28;20044;-68
2022/05/13 14:15:01;;;;;;;23.60;7.15;;;;;;;;;;5050620;28;20048;-67
2022/05/13 14:18:06;;;;;;;24.23;7.25;;;;;;;;;;5050431;28;20041;-68
2022/05/13 14:21:10;;;;;;;16.73;6.93;;;;;;;;;;5050172;28;20051;-68
2022/05/13 14:24:15;;;;;;;40.83;10.20;;;;;;;;;;5050020;28;20044;-67
2022/05/13 14:27:21;;;;;;;79.60;11.57;;;;;;;;;;5050201;28;20492;-67
2022/05/13 14:30:31;;;;;;;17.95;6.40;;;;;;;;;;5050432;28;20516;-68
2022/05/13 14:33:38;;;;;;;10.88;6.15;;;;;;;;;;5050028;28;20500;-68
2022/05/13 14:36:45;;;;;;;22.75;7.15;;;;;;;;;;5050419;28;20051;-67
2022/05/13 14:39:50;;;;;;;63.92;10.40;;;;;;;;;;5050693;28;20044;-67
2022/05/13 14:42:56;;;;;;;29.35;7.25;;;;;;;;;;5050555;28;20043;-66
2022/05/13 14:46:08;;;;;;;18.52;6.57;;;;;;;;;;5049986;28;20044;-69
2022/05/13 14:49:31;;;;;;;24.60;7.60;;;;;;;;;;5050140;28;20060;-68
2022/05/13 14:52:41;;;;;;;19.77;5.80;;;;;;;;;;5049658;28;20044;-67
2022/05/13 14:55:52;;;;;;;54.97;8.48;;;;;;;;;;5050137;28;20067;-67
2022/05/13 14:59:01;;;;;;;27.85;6.72;;;;;;;;;;5049318;28;20037;-67
2022/05/13 15:02:09;;;;;;;14.68;6.53;;;;;;;;;;5049712;28;20052;-67
2022/05/13 15:05:19;;;;;;;19.13;6.00;;;;;;;;;;5050183;28;20357;-68
2022/05/13 15:08:40;;;;;;;24.08;6.90;;;;;;;;;;5037308;28;20056;-67
2022/05/13 15:11:44;;;;;;;15.63;6.03;;;;;;;;;;5049886;28;20056;-69
2022/05/13 15:14:49;;;;;;;20.95;6.40;;;;;;;;;;5051167;28;20044;-67
2022/05/13 15:17:55;;;;;;;15.43;6.47;;;;;;;;;;5053760;28;20044;-69
2022/05/13 15:21:00;;;;;;;18.83;6.18;;;;;;;;;;5053505;28;20440;-67
2022/05/13 15:24:04;;;;;;;23.48;8.00;;;;;;;;;;5053469;28;20044;-67
2022/05/13 15:27:11;;;;;;;20.85;6.43;;;;;;;;;;5053191;28;20129;-68
2022/05/13 15:30:16;;;;;;;18.45;6.32;;;;;;;;;;5051024;28;20476;-67
2022/05/13 15:33:21;;;;;;;23.65;6.93;;;;;;;;;;5053137;28;20052;-69
2022/05/13 15:36:30;;;;;;;25.15;7.15;;;;;;;;;;5053126;28;20044;-69
2022/05/13 15:39:34;;;;;;;16.60;6.72;;;;;;;;;;5053011;28;20044;-69
2022/05/13 15:42:39;;;;;;;22.00;6.85;;;;;;;;;;5053072;28;20040;-69
2022/05/13 15:45:46;;;;;;;22.33;6.72;;;;;;;;;;5040924;28;20052;-69
2022/05/13 15:48:53;;;;;;;20.25;7.32;;;;;;;;;;5052959;28;20075;-69
2022/05/13 15:55:23;;;;;;;28.63;6.65;;;;;;;;;;5053161;28;20040;-69
2022/05/13 15:58:30;;;;;;;14.60;5.85;;;;;;;;;;5052519;28;20484;-68
2022/05/13 16:01:34;;;;;;;19.48;6.65;;;;;;;;;;5052831;28;20048;-68
2022/05/13 16:04:38;;;;;;;22.50;6.35;;;;;;;;;;5053247;28;20108;-71
2022/05/13 16:07:43;;;;;;;16.35;6.57;;;;;;;;;;5053040;28;20055;-73
2022/05/13 16:10:47;;;;;;;28.42;6.70;;;;;;;;;;5051989;28;20048;-72
2022/05/13 16:13:53;;;;;;;29.67;9.02;;;;;;;;;;5052758;28;20043;-70
2022/05/13 16:16:59;;;;;;;22.05;7.45;;;;;;;;;;5052705;28;20052;-69
2022/05/13 16:20:06;;;;;;;12.05;6.22;;;;;;;;;;5051977;28;20044;-69
2022/05/13 16:23:12;;;;;;;18.35;6.03;;;;;;;;;;5052240;28;20500;-71
2022/05/13 16:26:17;;;;;;;21.40;6.10;;;;;;;;;;5051974;28;20048;-71
2022/05/13 16:29:22;;;;;;;20.85;7.28;;;;;;;;;;5052149;28;20060;-71
2022/05/13 16:32:26;;;;;;;16.70;6.25;;;;;;;;;;5052076;28;20036;-70
2022/05/13 16:35:31;;;;;;;12.25;6.35;;;;;;;;;;5051977;28;20116;-71
2022/05/13 16:38:36;;;;;;;25.05;6.90;;;;;;;;;;5052057;28;20040;-71
2022/05/13 16:41:40;;;;;;;17.88;6.18;;;;;;;;;;5051792;28;20043;-71
2022/05/13 16:44:44;;;;;;;19.98;7.00;;;;;;;;;;5052082;28;20048;-72
2022/05/13 16:47:53;;;;;;;16.65;6.22;;;;;;;;;;5052219;28;20060;-73
2022/05/13 16:50:57;;;;;;;17.38;7.00;;;;;;;;;;5051644;28;20056;-73
2022/05/13 16:54:01;;;;;;;23.23;7.40;;;;;;;;;;5051836;28;20209;-72
2022/05/13 16:57:06;;;;;;;23.10;8.55;;;;;;;;;;5051643;28;20299;-72
2022/05/13 17:00:14;;;;;;;20.10;6.53;;;;;;;;;;5051667;28;20048;-73
2022/05/13 17:03:19;;;;;;;19.40;7.05;;;;;;;;;;5051830;28;20044;-72
2022/05/13 17:06:23;;;;;;;16.80;7.03;;;;;;;;;;5051890;28;20055;-73
2022/05/13 17:16:23;;;;;;;16.17;7.22;;;;;;;;;;5051555;28;20052;-74
2022/05/13 17:19:27;;;;;;;19.35;7.97;;;;;;;;;;5051507;28;20232;-73
2022/05/13 17:22:32;;;;;;;24.65;8.35;;;;;;;;;;5051530;28;20055;-74
2022/05/13 17:25:36;;;;;;;23.27;10.48;;;;;;;;;;5051638;28;20059;-74
2022/05/13 17:28:41;;;;;;;21.75;7.32;;;;;;;;;;5051417;28;20504;-74
2022/05/13 17:31:45;;;;;;;30.63;9.45;;;;;;;;;;5051457;28;20045;-73
2022/05/13 17:34:49;;;;;;;14.10;7.28;;;;;;;;;;5051900;28;20511;-71
2022/05/13 17:37:56;;;;;;;20.63;8.15;;;;;;;;;;5050450;28;20044;-72
2022/05/13 17:41:00;;;;;;;18.52;7.10;;;;;;;;;;5051085;28;20048;-71
2022/05/13 17:44:07;;;;;;;23.45;7.43;;;;;;;;;;5050984;28;20063;-71
2022/05/13 17:47:11;;;;;;;17.63;8.35;;;;;;;;;;5050736;28;20051;-71
2022/05/13 17:50:15;;;;;;;22.92;9.40;;;;;;;;;;5050782;28;20532;-71
2022/05/13 17:53:22;;;;;;;17.95;8.27;;;;;;;;;;5051012;28;20088;-71
2022/05/13 17:56:26;;;;;;;20.77;8.18;;;;;;;;;;5050933;28;20064;-71
2022/05/13 17:59:30;;;;;;;44.20;28.90;;;;;;;;;;5050816;28;20095;-70
2022/05/13 18:02:35;;;;;;;27.13;8.75;;;;;;;;;;5051085;28;20068;-71
2022/05/13 18:05:39;;;;;;;24.00;9.95;;;;;;;;;;5050771;28;20668;-75
2022/05/13 18:08:43;;;;;;;20.40;9.68;;;;;;;;;;5050105;28;20079;-75
2022/05/13 18:11:48;;;;;;;19.17;9.15;;;;;;;;;;5051348;28;20044;-74
2022/05/13 18:14:52;;;;;;;19.58;8.30;;;;;;;;;;5051327;28;20389;-74
2022/05/13 18:17:57;;;;;;;26.02;9.63;;;;;;;;;;5051337;28;20043;-74
2022/05/13 18:21:01;;;;;;;24.20;10.77;;;;;;;;;;5050530;28;20063;-73
2022/05/13 18:24:06;;;;;;;23.25;9.90;;;;;;;;;;5049740;28;20040;-73
2022/05/13 18:27:10;;;;;;;24.92;9.25;;;;;;;;;;5050853;28;20047;-73
2022/05/13 18:30:15;;;;;;;24.75;9.40;;;;;;;;;;5049382;28;20136;-73
2022/05/13 18:33:19;;;;;;;21.73;9.40;;;;;;;;;;5052198;28;20044;-73
2022/05/13 18:36:25;;;;;;;16.63;8.65;;;;;;;;;;5050632;28;20044;-73
2022/05/13 18:39:29;;;;;;;22.63;10.80;;;;;;;;;;5049810;28;20361;-73
2022/05/13 18:46:07;;;;;;;30.88;10.57;;;;;;;;;;5048016;28;20048;-74
2022/05/13 18:49:16;;;;;;;19.05;9.65;;;;;;;;;;5052257;28;20067;-74
2022/05/13 18:52:20;;;;;;;20.40;9.45;;;;;;;;;;5053805;28;20051;-74
2022/05/13 18:55:25;;;;;;;28.23;9.90;;;;;;;;;;5054466;28;20492;-75